Time;durP1;ratioP1;P1;durP2;ratioP2;P2;SDS_P1;SDS_P2;PMS_P1;PMS_P2;Temp;Humidity;BMP_temperature;BMP_pressure;BME280_temperature;BME280_humidity;BME280_pressure;Samples;Min_cycle;Max_cycle;Signal;HPM_P1;HPM_P2
2022/01/29 00:00:09;;;;;;;43.45;19.10;;;;;;;-4.25;65.99;97881.78;5041655;28;20144;-75
2022/01/29 00:02:38;;;;;;;51.60;19.97;;;;;;;-4.24;66.10;97886.06;5011436;28;20048;-75
2022/01/29 00:05:05;;;;;;;49.43;20.80;;;;;;;-4.29;66.16;97889.41;5056924;28;20041;-75
2022/01/29 00:07:31;;;;;;;47.90;19.53;;;;;;;-4.30;66.12;97890.44;5031679;28;20045;-73
2022/01/29 00:10:02;;;;;;;43.50;19.67;;;;;;;-4.30;66.41;97877.91;5039211;28;20577;-73
2022/01/29 00:12:30;;;;;;;47.57;19.33;;;;;;;-4.27;66.26;97873.97;5036925;28;20505;-76
2022/01/29 00:14:58;;;;;;;52.47;21.10;;;;;;;-4.26;65.97;97870.28;5009629;28;20053;-76
2022/01/29 00:17:24;;;;;;;44.92;20.70;;;;;;;-4.26;66.13;97867.59;5009129;28;20041;-76
2022/01/29 00:19:50;;;;;;;41.00;19.87;;;;;;;-4.22;65.99;97866.09;5029758;28;20060;-76
2022/01/29 00:22:16;;;;;;;53.00;20.53;;;;;;;-4.23;65.91;97864.47;5039671;28;20052;-76
2022/01/29 00:24:43;;;;;;;43.53;17.77;;;;;;;-4.24;65.75;97860.19;5022198;28;20049;-76
2022/01/29 00:27:10;;;;;;;46.27;18.57;;;;;;;-4.23;65.85;97869.00;5037000;28;20089;-76
2022/01/29 00:29:39;;;;;;;42.78;19.42;;;;;;;-4.30;65.91;97861.88;5039783;28;20514;-76
2022/01/29 00:32:08;;;;;;;49.13;19.83;;;;;;;-4.24;65.97;97864.72;5042596;28;20044;-73
2022/01/29 00:34:34;;;;;;;45.47;18.37;;;;;;;-4.26;65.79;97872.94;5023535;28;20151;-77
2022/01/29 00:37:01;;;;;;;52.77;20.40;;;;;;;-4.22;65.90;97870.63;5011680;28;20075;-77
2022/01/29 00:39:27;;;;;;;47.07;19.83;;;;;;;-4.24;65.82;97864.72;5036245;28;20481;-77
2022/01/29 00:41:53;;;;;;;50.00;20.60;;;;;;;-4.22;65.87;97866.09;5014823;28;20045;-77
2022/01/29 00:44:20;;;;;;;46.93;19.50;;;;;;;-4.21;65.76;97859.75;5032738;28;20045;-78
2022/01/29 00:46:46;;;;;;;46.30;20.17;;;;;;;-4.17;65.81;97855.56;5039144;28;20049;-73
2022/01/29 00:49:14;;;;;;;45.77;19.67;;;;;;;-4.15;65.65;97856.16;5033845;28;20058;-74
2022/01/29 00:51:40;;;;;;;49.83;20.03;;;;;;;-4.19;65.71;97856.84;5019138;28;20526;-74
2022/01/29 00:54:07;;;;;;;50.60;19.80;;;;;;;-4.22;65.83;97854.63;5037648;28;20524;-74
2022/01/29 00:56:34;;;;;;;43.80;20.27;;;;;;;-4.21;65.67;97858.91;5021602;28;20472;-74
2022/01/29 00:58:59;;;;;;;47.83;20.20;;;;;;;-4.30;65.86;97856.56;5047313;28;20139;-74
2022/01/29 01:01:26;;;;;;;46.10;20.70;;;;;;;-4.30;65.90;97855.75;5039800;28;20049;-75
2022/01/29 01:03:52;;;;;;;43.77;19.57;;;;;;;-4.24;65.74;97856.72;5016765;28;20060;-74
2022/01/29 01:06:20;;;;;;;45.87;19.67;;;;;;;-4.25;65.78;97863.09;5050108;28;20417;-74
2022/01/29 01:08:46;;;;;;;43.70;20.08;;;;;;;-4.25;65.91;97866.56;5043414;28;20049;-74
2022/01/29 01:11:12;;;;;;;52.50;20.83;;;;;;;-4.21;65.99;97859.75;5018711;28;20137;-74
2022/01/29 01:13:38;;;;;;;43.33;19.30;;;;;;;-4.22;65.76;97860.75;5024571;28;20144;-73
2022/01/29 01:16:05;;;;;;;45.87;20.43;;;;;;;-4.21;65.50;97864.25;5045348;28;20056;-74
2022/01/29 01:18:31;;;;;;;45.30;19.53;;;;;;;-4.20;65.81;97860.53;5053039;28;20498;-74
2022/01/29 01:20:57;;;;;;;44.93;19.97;;;;;;;-4.19;65.64;97857.66;5023810;28;20136;-74
2022/01/29 01:23:24;;;;;;;45.27;19.67;;;;;;;-4.25;65.61;97853.22;5039184;28;20057;-74
2022/01/29 01:25:50;;;;;;;43.25;18.75;;;;;;;-4.25;65.78;97855.09;5017917;28;20060;-75
2022/01/29 01:28:17;;;;;;;48.83;19.43;;;;;;;-4.24;65.78;97864.72;5052835;28;20114;-75
2022/01/29 01:30:43;;;;;;;43.63;19.23;;;;;;;-4.19;65.71;97862.16;5018428;28;20046;-75
2022/01/29 01:33:09;;;;;;;44.20;19.47;;;;;;;-4.14;65.20;97860.47;5018196;28;20076;-75
2022/01/29 01:35:44;;;;;;;41.60;19.23;;;;;;;-4.19;65.68;97867.50;5020806;28;20425;-75
2022/01/29 01:38:18;;;;;;;50.13;19.33;;;;;;;-4.20;65.37;97864.03;5022745;28;20044;-75
2022/01/29 01:40:51;;;;;;;41.97;19.27;;;;;;;-4.22;65.53;97868.78;5051567;28;20607;-75
2022/01/29 01:43:18;;;;;;;46.87;19.27;;;;;;;-4.25;65.46;97869.22;5036273;28;20297;-75
2022/01/29 01:45:44;;;;;;;42.50;19.00;;;;;;;-4.22;65.52;97863.44;5036640;28;20068;-75
2022/01/29 01:48:11;;;;;;;45.47;18.43;;;;;;;-4.21;65.52;97865.09;5049862;28;20056;-75
2022/01/29 01:50:37;;;;;;;46.10;18.93;;;;;;;-4.19;65.40;97860.34;5041581;28;20044;-76
2022/01/29 01:53:05;;;;;;;41.63;18.47;;;;;;;-4.18;65.60;97869.13;5020482;28;20061;-75
2022/01/29 01:55:31;;;;;;;;;;;;;;;-4.15;65.45;97871.34;5040486;28;20066;-76
2022/01/29 01:57:59;;;;;;;40.23;17.60;;;;;;;-4.16;65.31;97867.06;5029427;28;19978;-76
2022/01/29 02:00:26;;;;;;;45.30;17.80;;;;;;;-4.15;65.25;97869.50;5029747;28;20041;-76
2022/01/29 02:02:52;;;;;;;41.28;18.45;;;;;;;-4.15;65.28;97866.84;5039905;28;20049;-76
2022/01/29 02:05:18;;;;;;;44.80;18.93;;;;;;;-4.19;65.36;97862.16;5038330;28;20056;-76
2022/01/29 02:07:45;;;;;;;56.27;19.20;;;;;;;-4.18;65.48;97867.28;5034587;28;20403;-76
2022/01/29 02:10:13;;;;;;;44.15;19.95;;;;;;;-4.17;65.52;97866.25;5040990;28;20059;-76
2022/01/29 02:12:47;;;;;;;41.42;18.77;;;;;;;-4.18;65.82;97856.63;5022542;28;20140;-76
2022/01/29 02:15:16;;;;;;;42.37;19.43;;;;;;;-4.15;65.50;97858.84;5014686;28;20490;-78
2022/01/29 02:17:42;;;;;;;45.53;19.63;;;;;;;-4.09;65.45;97872.31;5045852;28;20550;-76
2022/01/29 02:20:09;;;;;;;50.70;20.00;;;;;;;-4.08;65.32;97868.59;5030325;28;20056;-76
2022/01/29 02:22:38;;;;;;;48.08;19.83;;;;;;;-4.10;65.29;97868.00;5029804;28;20095;-76
2022/01/29 02:25:05;;;;;;;54.03;20.47;;;;;;;-4.04;65.27;97865.25;5025361;28;20232;-76
2022/01/29 02:27:31;;;;;;;48.63;20.40;;;;;;;-4.01;65.05;97864.00;5038435;28;20533;-76
2022/01/29 02:29:59;;;;;;;43.87;19.63;;;;;;;-4.06;65.27;97864.66;5029182;28;20057;-76
2022/01/29 02:32:24;;;;;;;;;;;;;;;-4.10;65.42;97858.16;5039057;28;20131;-76
2022/01/29 02:34:51;;;;;;;44.30;19.33;;;;;;;-4.05;65.42;97854.81;5041412;28;19964;-76
2022/01/29 02:37:18;;;;;;;46.57;19.60;;;;;;;-4.06;65.22;97863.84;5035442;28;20111;-76
2022/01/29 02:39:45;;;;;;;47.58;19.88;;;;;;;-4.07;65.21;97857.69;5027934;28;20070;-76
2022/01/29 02:42:11;;;;;;;43.13;18.88;;;;;;;-4.07;65.11;97862.22;5034953;28;20505;-76
2022/01/29 02:44:37;;;;;;;47.03;19.47;;;;;;;-4.13;65.39;97850.59;5045698;28;20413;-76
2022/01/29 02:47:25;;;;;;;51.63;20.30;;;;;;;-4.06;65.31;97855.81;5034758;28;20132;-76
2022/01/29 02:49:50;;;;;;;46.90;20.37;;;;;;;-4.04;65.40;97861.78;5016076;28;20045;-77
2022/01/29 02:52:16;;;;;;;51.67;20.93;;;;;;;-4.07;65.33;97855.03;5042036;28;20049;-76
2022/01/29 02:54:42;;;;;;;53.80;21.07;;;;;;;-4.01;65.09;97864.78;5038163;28;20049;-76
2022/01/29 02:57:10;;;;;;;51.10;21.23;;;;;;;-4.07;65.34;97856.88;5039404;28;20059;-76
2022/01/29 02:59:36;;;;;;;;;;;;;;;-4.06;65.24;97856.66;5039946;28;20053;-76
2022/01/29 03:02:02;;;;;;;53.30;20.93;;;;;;;-4.10;65.35;97865.34;5020915;28;19928;-75
2022/01/29 03:04:29;;;;;;;59.70;22.33;;;;;;;-4.07;65.38;97867.53;5019009;28;20044;-76
2022/01/29 03:06:55;;;;;;;50.87;22.13;;;;;;;-4.04;65.16;97873.25;5028053;28;20048;-76
2022/01/29 03:09:21;;;;;;;56.73;23.77;;;;;;;-4.01;65.20;97872.78;5030165;28;20057;-76
2022/01/29 03:11:48;;;;;;;54.20;20.87;;;;;;;-3.96;65.07;97880.13;5024122;28;20053;-76
2022/01/29 03:14:15;;;;;;;56.40;21.20;;;;;;;-3.97;65.05;97872.38;5040812;28;20060;-77
2022/01/29 03:16:42;;;;;;;50.30;20.52;;;;;;;-4.01;65.32;97880.81;5044575;28;20545;-76
2022/01/29 03:19:08;;;;;;;52.83;21.63;;;;;;;-3.96;65.28;97879.34;5011091;28;20047;-76
2022/01/29 03:21:34;;;;;;;52.30;20.40;;;;;;;-4.08;65.17;97858.75;4989646;28;20293;-76
2022/01/29 03:24:00;;;;;;;49.27;20.03;;;;;;;-3.98;65.22;97871.53;5038352;28;20045;-77
2022/01/29 03:26:26;;;;;;;47.07;20.30;;;;;;;-3.92;65.10;97872.50;5034969;28;20126;-76
2022/01/29 03:28:52;;;;;;;47.90;20.93;;;;;;;-3.82;64.90;97872.75;5029577;28;20057;-77
2022/01/29 03:31:20;;;;;;;43.40;18.87;;;;;;;-3.77;64.68;97872.88;5030140;28;20050;-76
2022/01/29 03:33:46;;;;;;;45.75;19.67;;;;;;;-3.76;64.59;97869.16;5025835;28;20049;-76
2022/01/29 03:36:12;;;;;;;44.33;18.97;;;;;;;-3.70;64.48;97878.91;5040323;28;20053;-77
2022/01/29 03:38:40;;;;;;;48.23;20.60;;;;;;;-3.75;64.38;97875.31;5027151;28;20049;-77
2022/01/29 03:41:08;;;;;;;50.23;20.43;;;;;;;-3.73;64.62;97882.06;5018260;28;20099;-77
2022/01/29 03:43:43;;;;;;;;;;;;;;;-3.70;64.42;97878.13;5039498;28;20285;-77
2022/01/29 03:46:10;;;;;;;50.57;19.77;;;;;;;-3.72;64.37;97881.00;5020136;28;20042;-77
2022/01/29 03:48:37;;;;;;;53.57;21.03;;;;;;;-3.72;64.45;97877.53;5030961;28;20052;-76
2022/01/29 03:51:04;;;;;;;49.28;20.92;;;;;;;-3.68;64.25;97876.03;5005033;28;20140;-76
2022/01/29 03:53:30;;;;;;;47.27;21.00;;;;;;;-3.64;64.29;97884.41;5031630;28;20382;-76
2022/01/29 03:55:56;;;;;;;50.80;22.07;;;;;;;-3.68;64.41;97875.19;5023267;28;20045;-77
2022/01/29 03:58:22;;;;;;;46.97;21.40;;;;;;;-3.75;64.42;97873.47;5025101;28;20123;-77
2022/01/29 04:00:48;;;;;;;52.77;21.53;;;;;;;-3.71;64.69;97884.50;5036243;28;20049;-76
2022/01/29 04:03:15;;;;;;;45.10;20.77;;;;;;;-3.71;64.59;97882.63;5043163;28;20520;-76
2022/01/29 04:05:42;;;;;;;47.53;21.00;;;;;;;-3.67;64.59;97879.50;5046556;28;20055;-76
2022/01/29 04:08:15;;;;;;;53.17;22.52;;;;;;;-3.72;64.64;97874.88;5029846;28;20412;-76
2022/01/29 04:10:42;;;;;;;50.30;22.27;;;;;;;-3.68;64.81;97880.53;5006526;28;20056;-76
2022/01/29 04:13:13;;;;;;;49.10;21.60;;;;;;;-3.75;64.51;97867.28;5017032;28;20049;-76
2022/01/29 04:15:39;;;;;;;51.00;21.50;;;;;;;-3.71;64.52;97873.81;5042640;28;20521;-76
2022/01/29 04:18:06;;;;;;;48.53;21.60;;;;;;;-3.71;64.49;97874.63;5039041;28;20059;-76
2022/01/29 04:20:32;;;;;;;45.13;21.07;;;;;;;-3.69;64.65;97882.41;5048343;28;20519;-76
2022/01/29 04:23:00;;;;;;;54.00;22.77;;;;;;;-3.74;64.75;97882.31;5015702;28;20055;-77
2022/01/29 04:25:26;;;;;;;52.97;22.33;;;;;;;-3.73;64.81;97890.06;5011358;28;20044;-77
2022/01/29 04:27:56;;;;;;;50.93;22.83;;;;;;;-3.72;64.98;97885.56;5029573;28;20493;-77
2022/01/29 04:30:30;;;;;;;50.33;22.23;;;;;;;-3.68;64.70;97878.69;5040960;28;20123;-76
2022/01/29 04:33:23;;;;;;;51.20;22.70;;;;;;;-3.72;64.60;97882.88;5032374;28;20045;-76
2022/01/29 04:35:47;;;;;;;51.20;22.73;;;;;;;-3.63;64.55;97880.69;5031295;28;20057;-76
2022/01/29 04:38:15;;;;;;;56.07;23.33;;;;;;;-3.73;64.57;97890.06;5022872;28;20051;-75
2022/01/29 04:40:42;;;;;;;48.73;22.60;;;;;;;-3.69;64.53;97890.44;5030538;28;20037;-75
2022/01/29 04:43:08;;;;;;;54.00;23.27;;;;;;;-3.69;64.50;97882.41;5005219;28;20454;-76
2022/01/29 04:45:35;;;;;;;54.17;24.03;;;;;;;-3.70;64.44;97886.13;5029394;28;20081;-77
2022/01/29 04:48:01;;;;;;;55.17;23.47;;;;;;;-3.65;64.58;97893.47;5028167;28;20053;-77
2022/01/29 04:50:28;;;;;;;51.87;23.30;;;;;;;-3.58;64.26;97884.31;5030596;28;20048;-77
2022/01/29 04:52:54;;;;;;;51.63;23.30;;;;;;;-3.57;64.02;97885.09;5027078;28;20045;-76
2022/01/29 04:55:21;;;;;;;50.33;23.27;;;;;;;-3.57;63.98;97879.75;5031826;28;20136;-75
2022/01/29 04:57:48;;;;;;;58.90;23.52;;;;;;;-3.63;64.34;97875.34;5033386;28;20383;-76
2022/01/29 05:00:22;;;;;;;52.23;23.83;;;;;;;-3.66;64.55;97881.16;5025793;28;20055;-75
2022/01/29 05:02:48;;;;;;;49.77;22.27;;;;;;;-3.63;64.29;97889.50;5042501;28;20111;-77
2022/01/29 05:05:15;;;;;;;50.67;22.40;;;;;;;-3.61;64.30;97898.09;5028505;28;20146;-77
2022/01/29 05:07:41;;;;;;;57.23;23.30;;;;;;;-3.70;64.39;97894.16;5018967;28;20045;-78
2022/01/29 05:10:08;;;;;;;50.80;22.60;;;;;;;-3.79;64.79;97895.50;5035208;28;20047;-77
2022/01/29 05:12:52;;;;;;;56.75;24.48;;;;;;;-3.72;64.70;97898.91;5017823;28;20155;-77
2022/01/29 05:28:49;;;;;;;57.57;24.60;;;;;;;-3.78;64.77;97897.97;5034453;28;20053;-78
2022/01/29 05:31:15;;;;;;;61.10;24.47;;;;;;;-3.75;64.65;97889.50;5030471;28;20056;-78
2022/01/29 05:33:41;;;;;;;56.53;24.33;;;;;;;-3.74;64.75;97891.13;5013025;28;20410;-77
2022/01/29 05:36:08;;;;;;;58.30;24.80;;;;;;;-3.76;64.69;97889.72;5024093;28;20084;-78
2022/01/29 05:38:34;;;;;;;59.40;25.30;;;;;;;-3.78;64.75;97895.28;5018347;28;20058;-77
2022/01/29 05:41:04;;;;;;;56.33;24.93;;;;;;;-3.77;64.72;97893.41;5028164;28;20430;-78
2022/01/29 05:43:30;;;;;;;57.23;26.07;;;;;;;-3.74;64.62;97904.47;5032461;28;20045;-76
2022/01/29 05:45:58;;;;;;;60.00;25.17;;;;;;;-3.80;64.65;97901.91;5043307;28;20060;-77
2022/01/29 05:48:25;;;;;;;63.63;24.77;;;;;;;-3.70;64.68;97894.94;5015244;28;20045;-77
2022/01/29 05:50:51;;;;;;;61.97;27.07;;;;;;;-3.70;64.39;97902.16;5041650;28;20071;-77
2022/01/29 05:53:18;;;;;;;64.60;27.13;;;;;;;-3.68;64.52;97899.25;5018321;28;20103;-79
2022/01/29 05:55:44;;;;;;;63.13;27.23;;;;;;;-3.64;64.22;97898.56;5049271;28;20047;-77
2022/01/29 05:58:11;;;;;;;60.73;25.40;;;;;;;-3.63;64.26;97910.09;5037690;28;20065;-77
2022/01/29 06:00:37;;;;;;;61.53;26.43;;;;;;;-3.59;64.17;97917.41;5032184;28;20041;-78
2022/01/29 06:03:06;;;;;;;59.07;25.30;;;;;;;-3.53;64.05;97915.66;5032362;28;20046;-77
2022/01/29 06:05:33;;;;;;;65.20;26.27;;;;;;;-3.60;63.92;97909.63;5043863;28;20053;-77
2022/01/29 06:07:59;;;;;;;51.90;24.73;;;;;;;-3.54;63.90;97914.03;5033004;28;20099;-77
2022/01/29 06:10:29;;;;;;;56.30;25.67;;;;;;;-3.60;63.98;97906.94;5033116;28;20065;-78
2022/01/29 06:13:00;;;;;;;53.77;24.33;;;;;;;-3.52;63.92;97911.94;5039247;28;20124;-77
2022/01/29 06:15:26;;;;;;;57.33;24.73;;;;;;;-3.77;64.11;97890.75;5024069;28;20041;-76
2022/01/29 06:17:54;;;;;;;57.03;24.20;;;;;;;-3.55;64.00;97920.44;5029806;28;20049;-76
2022/01/29 06:20:22;;;;;;;58.10;24.58;;;;;;;-3.54;63.86;97911.38;5020386;28;20110;-77
2022/01/29 06:22:48;;;;;;;60.57;26.20;;;;;;;-3.51;63.78;97908.25;5039621;28;20099;-76
2022/01/29 06:25:14;;;;;;;57.90;25.73;;;;;;;-3.50;63.90;97917.91;5037594;28;20049;-76
2022/01/29 06:27:40;;;;;;;58.60;26.07;;;;;;;-3.51;63.95;97920.78;5032226;28;20045;-77
2022/01/29 06:30:07;;;;;;;60.60;24.73;;;;;;;-3.56;64.05;97921.47;5040373;28;20152;-77
2022/01/29 06:32:33;;;;;;;60.50;24.70;;;;;;;-3.47;64.00;97927.31;5049186;28;20075;-76
2022/01/29 06:35:00;;;;;;;58.03;26.00;;;;;;;-3.48;63.63;97923.00;5014633;28;20049;-76
2022/01/29 06:37:27;;;;;;;59.17;25.63;;;;;;;-3.51;63.85;97921.63;5031817;28;20045;-76
2022/01/29 06:39:53;;;;;;;60.92;26.40;;;;;;;-3.53;63.79;97931.69;5014217;28;20525;-76
2022/01/29 06:42:19;;;;;;;55.03;26.00;;;;;;;-3.54;63.90;97924.72;5023137;28;20053;-76
2022/01/29 06:44:45;;;;;;;57.83;26.47;;;;;;;-3.56;63.83;97918.81;5014180;28;20422;-76
2022/01/29 06:47:12;;;;;;;57.70;25.13;;;;;;;-3.61;63.97;97921.34;5046832;28;20057;-76
2022/01/29 06:49:38;;;;;;;59.13;25.83;;;;;;;-3.59;63.82;97932.63;5030268;28;20505;-76
2022/01/29 06:52:05;;;;;;;60.57;26.97;;;;;;;-3.57;64.07;97938.56;5014329;28;20099;-76
2022/01/29 06:54:32;;;;;;;58.90;24.73;;;;;;;-3.49;63.77;97940.09;5014277;28;20497;-76
2022/01/29 06:56:58;;;;;;;70.10;26.73;;;;;;;-3.50;63.84;97946.47;5032417;28;20143;-78
2022/01/29 06:59:24;;;;;;;61.10;26.07;;;;;;;-3.49;63.77;97945.44;5043103;28;20520;-78
2022/01/29 07:01:51;;;;;;;69.73;27.07;;;;;;;-3.50;63.98;97939.28;5023004;28;20072;-78
2022/01/29 07:04:17;;;;;;;69.13;28.30;;;;;;;-3.49;64.05;97934.72;5050047;28;20055;-77
2022/01/29 07:06:43;;;;;;;71.47;28.60;;;;;;;-3.49;63.79;97938.22;5048699;28;20597;-78
2022/01/29 07:09:09;;;;;;;70.07;29.17;;;;;;;-3.44;63.83;97940.19;5016316;28;20122;-78
2022/01/29 07:11:36;;;;;;;71.33;29.60;;;;;;;-3.49;63.66;97929.38;5014228;28;20059;-77
2022/01/29 07:14:03;;;;;;;61.63;27.65;;;;;;;-3.45;63.88;97928.72;5031734;28;20050;-78
2022/01/29 07:16:31;;;;;;;60.17;26.77;;;;;;;-3.37;63.68;97935.59;4997880;28;20084;-78
2022/01/29 07:18:57;;;;;;;58.97;25.63;;;;;;;-3.30;63.54;97935.47;5022169;28;20037;-77
2022/01/29 07:21:24;;;;;;;65.90;28.43;;;;;;;-3.31;63.69;97937.31;5031347;28;20061;-78
2022/01/29 07:23:50;;;;;;;63.03;27.20;;;;;;;-3.29;63.58;97943.25;5031704;28;20069;-71
2022/01/29 07:26:16;;;;;;;63.53;27.53;;;;;;;-3.34;63.52;97943.13;5012437;28;20069;-71
2022/01/29 07:28:43;;;;;;;56.77;25.00;;;;;;;-3.30;63.60;97946.97;5029942;28;20053;-72
2022/01/29 07:31:10;;;;;;;58.15;25.67;;;;;;;-3.24;63.42;97949.78;5038084;28;20412;-71
2022/01/29 07:33:36;;;;;;;62.33;27.07;;;;;;;-3.31;63.39;97937.31;5013603;28;20572;-71
2022/01/29 07:36:03;;;;;;;63.80;28.80;;;;;;;-3.22;63.60;97961.84;5022529;28;20052;-71
2022/01/29 07:38:29;;;;;;;67.63;29.63;;;;;;;-3.25;63.59;97954.31;5054092;28;20040;-69
2022/01/29 07:40:55;;;;;;;63.77;29.33;;;;;;;-3.18;63.52;97964.91;5016993;28;20556;-72
2022/01/29 07:43:22;;;;;;;67.30;28.40;;;;;;;-3.12;63.31;97964.00;5050399;28;20041;-72
2022/01/29 07:45:49;;;;;;;65.67;28.33;;;;;;;-3.06;63.23;97971.09;5049531;28;20064;-71
2022/01/29 07:48:15;;;;;;;68.72;28.38;;;;;;;-3.07;63.10;97969.47;5000640;28;20312;-71
2022/01/29 07:50:41;;;;;;;65.37;28.43;;;;;;;-3.08;63.23;97961.66;5040965;28;20037;-71
2022/01/29 07:53:08;;;;;;;61.63;27.90;;;;;;;-3.10;63.21;97955.72;5034705;28;20044;-70
2022/01/29 07:55:34;;;;;;;54.40;26.00;;;;;;;-3.13;63.22;97957.00;5033417;28;20041;-70
2022/01/29 07:58:02;;;;;;;60.97;26.30;;;;;;;-3.10;63.34;97953.06;5049826;28;20486;-70
2022/01/29 08:00:28;;;;;;;56.03;26.10;;;;;;;-3.08;63.35;97950.94;5031226;28;20051;-71
2022/01/29 08:02:55;;;;;;;59.60;26.40;;;;;;;-3.10;62.99;97943.19;5040472;28;20092;-71
2022/01/29 08:05:22;;;;;;;66.30;26.27;;;;;;;-3.09;63.13;97944.81;5029821;28;20152;-70
2022/01/29 08:07:48;;;;;;;56.77;25.20;;;;;;;-3.09;63.04;97941.31;5035810;28;20045;-71
2022/01/29 08:10:14;;;;;;;54.07;26.23;;;;;;;-3.04;63.08;97936.09;5034379;28;20103;-71
2022/01/29 08:12:40;;;;;;;59.67;25.10;;;;;;;-2.99;62.82;97944.22;5034482;28;20065;-72
2022/01/29 08:15:08;;;;;;;59.73;26.40;;;;;;;-3.01;63.03;97943.66;5034884;28;20528;-71
2022/01/29 08:17:34;;;;;;;;;;;;;;;-2.99;63.09;97946.91;5016312;28;20060;-71
2022/01/29 08:20:02;;;;;;;60.10;25.10;;;;;;;-3.02;62.92;97945.50;5040071;28;20183;-70
2022/01/29 08:22:29;;;;;;;57.53;26.13;;;;;;;-2.97;62.50;97946.66;5050994;28;20045;-70
2022/01/29 08:24:57;;;;;;;59.33;26.93;;;;;;;-2.95;62.84;97945.38;5035627;28;20075;-70
2022/01/29 08:27:24;;;;;;;62.30;26.90;;;;;;;-2.91;62.63;97949.22;5028408;28;20049;-70
2022/01/29 08:29:50;;;;;;;69.40;26.50;;;;;;;-2.85;62.69;97945.63;5034367;28;20050;-69
2022/01/29 08:32:19;;;;;;;67.17;27.87;;;;;;;-2.83;62.58;97944.59;5034103;28;20100;-70
2022/01/29 08:34:47;;;;;;;58.40;27.47;;;;;;;-2.81;62.74;97947.84;5038777;28;20050;-69
2022/01/29 08:37:14;;;;;;;59.35;26.88;;;;;;;-2.85;62.69;97942.97;5017111;28;20049;-70
2022/01/29 08:39:45;;;;;;;;;;;;;;;-2.79;62.85;97956.44;5039910;28;20051;-70
2022/01/29 08:42:15;;;;;;;56.47;25.23;;;;;;;-2.75;62.45;97955.75;5015933;28;20023;-70
2022/01/29 08:44:42;;;;;;;64.73;27.10;;;;;;;-2.75;62.50;97953.06;5034234;28;20068;-70
2022/01/29 08:47:08;;;;;;;61.23;26.70;;;;;;;-2.73;62.47;97953.66;5027022;28;20568;-70
2022/01/29 08:49:34;;;;;;;62.37;27.23;;;;;;;-2.68;62.37;97947.59;5025604;28;20045;-70
2022/01/29 08:52:01;;;;;;;65.20;26.93;;;;;;;-2.69;62.43;97937.94;5036184;28;20055;-70
2022/01/29 08:54:29;;;;;;;59.57;25.90;;;;;;;-2.64;62.44;97953.31;5052064;28;20072;-69
2022/01/29 08:56:54;;;;;;;;;;;;;;;-2.62;62.36;97951.22;5030901;28;20064;-70
2022/01/29 08:59:21;;;;;;;63.50;26.73;;;;;;;-2.66;62.21;97934.81;5053362;28;19924;-70
2022/01/29 09:01:48;;;;;;;62.13;27.63;;;;;;;-2.58;62.06;97949.69;5040965;28;20426;-70
2022/01/29 09:04:14;;;;;;;62.33;26.48;;;;;;;-2.55;62.07;97954.56;5014118;28;20079;-69
2022/01/29 09:06:40;;;;;;;60.20;26.23;;;;;;;-2.54;61.87;97950.84;5033630;28;20049;-69
2022/01/29 09:09:07;;;;;;;61.60;26.57;;;;;;;-2.51;62.13;97955.72;5028773;28;20505;-69
2022/01/29 09:11:34;;;;;;;62.93;27.00;;;;;;;-2.60;61.81;97920.47;5035696;28;20103;-71
2022/01/29 09:14:00;;;;;;;71.63;29.13;;;;;;;-2.46;61.95;97950.50;5053882;28;20049;-69
2022/01/29 09:16:27;;;;;;;62.47;27.70;;;;;;;-2.42;61.75;97953.50;5011463;28;20529;-70
2022/01/29 09:18:53;;;;;;;69.23;29.77;;;;;;;-2.40;61.77;97963.97;5033495;28;20144;-69
2022/01/29 09:21:19;;;;;;;64.43;27.00;;;;;;;-2.42;61.94;97974.91;5038778;28;20049;-69
2022/01/29 09:23:45;;;;;;;62.50;27.87;;;;;;;-2.42;62.08;97970.38;5024817;28;20461;-70
2022/01/29 09:26:11;;;;;;;62.27;28.37;;;;;;;-2.35;61.81;97977.47;5033083;28;20049;-69
2022/01/29 09:28:39;;;;;;;64.73;28.07;;;;;;;-2.33;61.64;97960.13;5006074;28;20111;-69
2022/01/29 09:31:05;;;;;;;63.78;28.80;;;;;;;-2.26;61.60;97960.00;5030081;28;20064;-69
2022/01/29 09:33:31;;;;;;;67.57;28.53;;;;;;;-2.18;61.22;97962.31;5043967;28;20441;-70
2022/01/29 09:35:58;;;;;;;68.47;29.93;;;;;;;-2.19;61.39;97967.91;5005395;28;20068;-70
2022/01/29 09:38:23;;;;;;;71.63;30.93;;;;;;;-2.25;61.43;97966.19;5052935;28;20053;-69
2022/01/29 09:40:50;;;;;;;67.23;29.80;;;;;;;-2.25;61.71;97972.31;5029203;28;20220;-69
2022/01/29 09:43:17;;;;;;;68.20;29.83;;;;;;;-2.21;61.64;97975.34;5041403;28;20069;-68
2022/01/29 09:45:50;;;;;;;72.75;30.42;;;;;;;-2.21;61.80;97970.00;5031621;28;20115;-68
2022/01/29 09:48:21;;;;;;;71.77;29.33;;;;;;;-2.22;61.64;97976.41;5023881;28;20081;-69
2022/01/29 09:50:47;;;;;;;65.13;30.90;;;;;;;-2.18;61.69;97974.88;5035183;28;20052;-68
2022/01/29 09:53:13;;;;;;;73.30;31.23;;;;;;;-2.13;61.45;97977.66;5043169;28;20052;-68
2022/01/29 09:55:41;;;;;;;72.77;30.83;;;;;;;-2.20;61.66;97985.81;5025234;28;20053;-69
2022/01/29 09:58:07;;;;;;;;;;;;;;;-2.12;61.54;97975.81;5049908;28;20053;-69
2022/01/29 10:00:33;;;;;;;73.60;30.17;;;;;;;-2.15;61.54;97975.22;5042772;28;19928;-70
2022/01/29 10:03:19;;;;;;;72.47;31.77;;;;;;;-2.20;61.64;97983.13;5032417;28;20126;-69
2022/01/29 10:05:47;;;;;;;74.60;31.07;;;;;;;-2.24;61.72;97987.34;5015158;28;20102;-70
2022/01/29 10:08:14;;;;;;;81.43;33.07;;;;;;;-2.09;61.58;97975.31;5015596;28;20644;-70
2022/01/29 10:10:43;;;;;;;78.38;31.25;;;;;;;-2.08;61.36;97952.84;5039706;28;20131;-70
2022/01/29 10:13:26;;;;;;;71.40;32.03;;;;;;;-1.91;61.18;97977.81;5040060;28;20067;-70
2022/01/29 10:16:03;;;;;;;78.63;33.57;;;;;;;-1.92;61.01;97953.97;5037206;28;20502;-67
2022/01/29 10:18:31;;;;;;;72.35;31.42;;;;;;;-1.72;61.08;97977.63;5043340;28;20073;-72
2022/01/29 10:21:10;;;;;;;83.90;32.30;;;;;;;-1.66;61.09;97973.19;4997844;28;20053;-69
2022/01/29 10:23:39;;;;;;;72.47;30.77;;;;;;;-1.66;60.82;97982.06;5021025;28;20044;-69
2022/01/29 10:26:07;;;;;;;70.03;30.07;;;;;;;-1.64;60.89;97974.59;5007147;28;20068;-68
2022/01/29 10:28:33;;;;;;;76.07;33.50;;;;;;;-1.73;61.09;97978.69;5033406;28;20045;-70
2022/01/29 10:31:02;;;;;;;77.17;31.97;;;;;;;-1.71;61.45;97982.78;5044837;28;20566;-70
2022/01/29 10:33:32;;;;;;;75.43;32.17;;;;;;;-1.65;60.70;97977.50;5005746;28;20132;-68
2022/01/29 10:36:00;;;;;;;72.00;32.60;;;;;;;-1.59;60.69;97980.03;5050690;28;20552;-68
2022/01/29 10:38:29;;;;;;;68.77;31.80;;;;;;;-1.57;60.86;97980.59;5011528;28;20100;-69
2022/01/29 10:41:17;;;;;;;77.93;32.97;;;;;;;-1.53;60.51;97980.94;5042607;28;20071;-68
2022/01/29 10:44:10;;;;;;;70.70;31.47;;;;;;;-1.43;60.35;97970.41;5005419;28;20468;-69
2022/01/29 10:46:39;;;;;;;74.00;31.73;;;;;;;-1.38;60.21;97974.22;5039686;28;20395;-68
2022/01/29 10:49:07;;;;;;;79.87;31.70;;;;;;;-1.47;60.27;97958.56;5028585;28;20053;-68
2022/01/29 10:51:34;;;;;;;75.97;33.77;;;;;;;-1.40;60.06;97969.13;5031435;28;20049;-68
2022/01/29 10:54:16;;;;;;;75.33;32.40;;;;;;;-1.58;60.04;97941.44;5025064;28;20045;-67
2022/01/29 10:56:53;;;;;;;75.67;34.97;;;;;;;-1.42;59.93;97976.56;5042234;28;20056;-68
2022/01/29 10:59:20;;;;;;;75.97;34.23;;;;;;;-1.42;60.10;97971.22;5033525;28;20041;-68
2022/01/29 11:01:51;;;;;;;71.23;33.27;;;;;;;-1.30;60.06;97963.91;5045444;28;20052;-67
2022/01/29 11:04:18;;;;;;;82.47;35.53;;;;;;;-1.27;60.15;97972.53;5026980;28;20187;-67
2022/01/29 11:06:47;;;;;;;82.82;33.95;;;;;;;-1.22;60.09;97980.69;5043482;28;20049;-69
2022/01/29 11:09:14;;;;;;;78.07;35.50;;;;;;;-1.24;59.85;97969.41;5029799;28;20508;-69
2022/01/29 11:11:41;;;;;;;85.87;36.77;;;;;;;-1.30;60.15;97976.53;5008830;28;20513;-69
2022/01/29 11:14:11;;;;;;;90.80;37.58;;;;;;;-1.30;60.23;97968.50;5032657;28;20037;-69
2022/01/29 11:16:38;;;;;;;83.63;36.07;;;;;;;-1.32;60.19;97966.03;5048016;28;20048;-69
2022/01/29 11:19:06;;;;;;;88.15;36.78;;;;;;;-1.32;59.96;97962.56;5036899;28;20056;-68
2022/01/29 11:21:35;;;;;;;79.22;35.50;;;;;;;-1.32;60.06;97959.88;5026033;28;20520;-69
2022/01/29 11:24:02;;;;;;;85.80;37.47;;;;;;;-1.28;60.10;97963.69;5038341;28;20629;-69
2022/01/29 11:26:30;;;;;;;83.25;36.22;;;;;;;-1.28;60.04;97963.69;5039880;28;20410;-68
2022/01/29 11:29:27;;;;;;;91.65;36.45;;;;;;;-1.26;60.06;97963.44;5051369;28;20045;-69
2022/01/29 11:32:27;;;;;;;83.90;36.47;;;;;;;-1.29;60.06;97964.75;5043207;28;20072;-68
2022/01/29 11:35:05;;;;;;;91.57;38.40;;;;;;;-1.34;60.54;97954.75;5037189;28;20045;-68